Time;durP1;ratioP1;P1;durP2;ratioP2;P2;SDS_P1;SDS_P2;PMS_P1;PMS_P2;Temp;Humidity;BMP_temperature;BMP_pressure;BME280_temperature;BME280_humidity;BME280_pressure;Samples;Min_cycle;Max_cycle;Signal;HPM_P1;HPM_P2
2023/12/12 00:02:10;;;;;;;;;;;;;;;6.91;68.70;99894.72;5489083;32;34889;-71
2023/12/12 00:05:13;;;;;;;;;;;;;;;6.76;68.83;99893.47;5489400;32;34269;-68
2023/12/12 00:08:15;;;;;;;;;;;;;;;7.04;67.94;99885.59;5489792;32;34693;-71
2023/12/12 00:11:21;;;;;;;;;;;;;;;7.34;65.97;99890.69;5487591;32;34871;-71
2023/12/12 00:14:23;;;;;;;;;;;;;;;6.49;67.65;99902.97;5491576;32;34430;-67
2023/12/12 00:17:26;;;;;;;;;;;;;;;6.59;69.44;99889.66;5482483;32;34822;-69
2023/12/12 00:20:28;;;;;;;;;;;;;;;6.91;68.07;99892.09;5486878;32;34832;-71
2023/12/12 00:23:31;;;;;;;;;;;;;;;6.48;69.62;99910.84;5488846;32;34635;-71
2023/12/12 00:26:33;;;;;;;;;;;;;;;6.51;68.81;99916.00;5487098;32;34710;-72
2023/12/12 00:29:35;;;;;;;;;;;;;;;7.07;68.06;99922.06;5489597;32;34263;-69
2023/12/12 00:32:37;;;;;;;;;;;;;;;6.55;68.63;99916.75;5485470;32;35285;-69
2023/12/12 00:35:39;;;;;;;;;;;;;;;6.58;69.89;99925.34;5490343;32;35142;-68
2023/12/12 00:38:42;;;;;;;;;;;;;;;6.57;70.13;99923.66;5485486;32;35340;-71
2023/12/12 00:41:44;;;;;;;;;;;;;;;6.95;68.97;99917.22;5487062;32;35601;-72
2023/12/12 00:44:46;;;;;;;;;;;;;;;6.44;70.22;99917.06;5479937;32;34889;-69
2023/12/12 00:47:51;;;;;;;;;;;;;;;6.96;69.55;99926.78;5485303;32;34635;-69
2023/12/12 00:51:07;;;;;;;;;;;;;;;6.57;69.73;99922.75;5487493;32;32832;-70
2023/12/12 00:54:09;;;;;;;;;;;;;;;6.77;69.67;99920.44;5485002;32;34991;-69
2023/12/12 00:57:11;;;;;;;;;;;;;;;6.96;69.60;99918.94;5490080;32;35245;-71
2023/12/12 01:00:13;;;;;;;;;;;;;;;7.05;68.76;99913.41;5486936;32;35345;-71
2023/12/12 01:03:18;;;;;;;;;;;;;;;7.07;68.04;99922.06;5484838;32;35632;-71
2023/12/12 01:06:33;;;;;;;;;;;;;;;6.81;69.45;99911.56;5485245;32;34680;-70
2023/12/12 01:09:47;;;;;;;;;;;;;;;6.97;67.80;99920.66;5482634;32;34650;-70
2023/12/12 01:13:12;;;;;;;;;;;;;;;7.01;67.86;99918.78;5472119;32;35095;-69
2023/12/12 01:16:34;;;;;;;;;;;;;;;7.14;67.56;99919.25;5469044;32;33965;-70
2023/12/12 01:19:59;;;;;;;;;;;;;;;7.38;66.02;99917.59;5483120;32;33539;-70
2023/12/12 01:23:11;;;;;;;;;;;;;;;6.84;67.37;99919.34;5487224;32;34192;-71
2023/12/12 01:26:36;;;;;;;;;;;;;;;6.21;70.23;99907.31;5485641;32;34150;-69
2023/12/12 01:29:54;;;;;;;;;;;;;;;6.29;70.54;99905.31;5470374;32;34588;-72
2023/12/12 01:33:11;;;;;;;;;;;;;;;7.00;67.69;99910.09;5474709;32;33677;-70
2023/12/12 01:36:22;;;;;;;;;;;;;;;6.57;69.37;99913.22;5466857;32;33373;-72
2023/12/12 01:39:51;;;;;;;;;;;;;;;6.13;71.69;99919.72;5470505;32;34601;-72
2023/12/12 01:43:30;;;;;;;;;;;;;;;5.95;72.77;99911.50;5445092;32;35768;-70
2023/12/12 01:46:51;;;;;;;;;;;;;;;6.25;72.08;99911.56;5437814;32;35236;-68
2023/12/12 01:50:22;;;;;;;;;;;;;;;6.33;73.19;99899.12;5435314;32;34119;-69
2023/12/12 01:53:50;;;;;;;;;;;;;;;6.74;72.01;99920.50;5448327;32;35591;-70
2023/12/12 01:57:08;;;;;;;;;;;;;;;6.55;71.95;99914.12;5437282;32;34432;-71
2023/12/12 02:00:25;;;;;;;;;;;;;;;7.01;70.44;99921.41;5444683;32;34003;-70
2023/12/12 02:03:40;;;;;;;;;;;;;;;6.86;70.65;99922.75;5418037;32;34878;-69
2023/12/12 02:06:52;;;;;;;;;;;;;;;6.94;69.66;99923.34;5429748;32;35496;-71
2023/12/12 02:10:04;;;;;;;;;;;;;;;7.39;68.38;99904.47;5433094;32;36711;-71
2023/12/12 02:13:15;;;;;;;;;;;;;;;7.35;67.77;99899.41;5428762;32;34628;-69
2023/12/12 02:16:26;;;;;;;;;;;;;;;7.30;66.59;99905.62;5442319;32;35020;-68
2023/12/12 02:19:39;;;;;;;;;;;;;;;6.91;67.52;99913.00;5439708;32;33648;-69
2023/12/12 02:22:53;;;;;;;;;;;;;;;6.76;69.14;99918.69;5444750;32;33609;-71
2023/12/12 02:26:04;;;;;;;;;;;;;;;6.56;69.18;99915.84;5449144;32;37397;-71
2023/12/12 02:29:23;;;;;;;;;;;;;;;6.70;69.66;99914.53;5446784;32;33003;-68
2023/12/12 02:32:33;;;;;;;;;;;;;;;6.33;69.82;99917.41;5449973;32;34797;-71
2023/12/12 02:35:55;;;;;;;;;;;;;;;6.87;69.06;99913.16;5451113;32;33442;-70
2023/12/12 02:39:11;;;;;;;;;;;;;;;6.62;70.41;99918.28;5453346;32;34216;-68
2023/12/12 02:42:23;;;;;;;;;;;;;;;7.17;68.40;99927.00;5486372;32;33636;-72
2023/12/12 02:45:48;;;;;;;;;;;;;;;6.99;68.55;99916.22;5476838;32;33440;-69
2023/12/12 02:49:07;;;;;;;;;;;;;;;6.66;69.52;99919.91;5469291;32;34023;-68
2023/12/12 02:52:17;;;;;;;;;;;;;;;6.48;69.80;99923.91;5471167;32;34335;-71
2023/12/12 02:55:30;;;;;;;;;;;;;;;6.71;69.42;99925.84;5474969;32;34742;-72
2023/12/12 02:58:47;;;;;;;;;;;;;;;7.31;67.72;99909.09;5487712;32;33717;-72
2023/12/12 03:02:03;;;;;;;;;;;;;;;7.58;66.61;99920.38;5468840;32;34280;-70
2023/12/12 03:05:23;;;;;;;;;;;;;;;7.01;68.30;99937.06;5486464;31;34584;-68
2023/12/12 03:08:54;;;;;;;;;;;;;;;6.82;68.95;99921.12;5485595;32;35355;-71
2023/12/12 03:12:06;;;;;;;;;;;;;;;7.27;66.92;99924.00;5484104;32;34140;-69
2023/12/12 03:15:30;;;;;;;;;;;;;;;7.39;66.60;99920.16;5477386;32;34723;-71
2023/12/12 03:18:55;;;;;;;;;;;;;;;6.98;67.54;99932.81;5450897;32;34918;-68
2023/12/12 03:22:16;;;;;;;;;;;;;;;7.14;67.48;99937.53;5440879;32;34375;-69
2023/12/12 03:25:34;;;;;;;;;;;;;;;7.20;67.02;99943.44;5454262;32;34469;-68
2023/12/12 03:28:44;;;;;;;;;;;;;;;7.17;66.98;99940.94;5451507;32;33945;-69
2023/12/12 03:31:55;;;;;;;;;;;;;;;7.14;66.63;99943.62;5440814;32;34368;-69
2023/12/12 03:35:10;;;;;;;;;;;;;;;7.00;67.64;99949.28;5463012;32;34621;-69
2023/12/12 03:38:30;;;;;;;;;;;;;;;6.77;67.85;99946.56;5446087;32;35281;-70
2023/12/12 03:41:42;;;;;;;;;;;;;;;7.03;67.55;99949.22;5453832;32;33788;-69
2023/12/12 03:44:54;;;;;;;;;;;;;;;6.92;68.07;99956.53;5445598;32;34682;-70
2023/12/12 03:48:16;;;;;;;;;;;;;;;7.12;67.55;99957.66;5437614;32;35280;-72
2023/12/12 03:51:31;;;;;;;;;;;;;;;7.09;67.48;99955.16;5451433;32;34752;-70
2023/12/12 03:54:47;;;;;;;;;;;;;;;6.78;68.33;99953.47;5438702;32;32740;-68
2023/12/12 03:57:56;;;;;;;;;;;;;;;6.80;68.23;99956.88;5440291;32;33863;-72
2023/12/12 04:01:23;;;;;;;;;;;;;;;6.91;67.97;99960.03;5402672;32;35263;-69
2023/12/12 04:04:26;;;;;;;;;;;;;;;6.81;68.43;99966.44;5400760;32;34381;-68
2023/12/12 04:07:28;;;;;;;;;;;;;;;6.86;68.83;99954.09;5391841;32;34374;-71
2023/12/12 04:10:30;;;;;;;;;;;;;;;7.08;67.75;99959.50;5388407;32;35425;-69
2023/12/12 04:13:32;;;;;;;;;;;;;;;7.23;67.48;99961.63;5401214;32;35441;-69
2023/12/12 04:16:35;;;;;;;;;;;;;;;7.21;67.61;99973.03;5434023;32;35395;-70
2023/12/12 04:19:37;;;;;;;;;;;;;;;7.07;67.96;99969.09;5422331;32;35209;-71
2023/12/12 04:22:39;;;;;;;;;;;;;;;7.37;66.70;99969.03;5439114;32;34790;-69
2023/12/12 04:25:42;;;;;;;;;;;;;;;7.48;65.63;99961.69;5437953;32;34736;-69
2023/12/12 04:28:44;;;;;;;;;;;;;;;7.15;66.63;99973.22;5429547;32;34084;-68
2023/12/12 04:31:52;;;;;;;;;;;;;;;7.20;66.43;99969.56;5421391;32;34687;-72
2023/12/12 04:35:16;;;;;;;;;;;;;;;7.07;67.23;99963.00;5436637;32;34182;-69
2023/12/12 04:38:49;;;;;;;;;;;;;;;7.09;66.81;99965.59;5431152;32;34103;-71
2023/12/12 04:42:05;;;;;;;;;;;;;;;7.20;66.37;99961.72;5421707;32;33079;-68
2023/12/12 04:45:19;;;;;;;;;;;;;;;7.15;66.42;99973.22;5428744;32;33012;-73
2023/12/12 04:48:43;;;;;;;;;;;;;;;7.12;66.63;99968.09;5430689;32;36487;-70
2023/12/12 04:52:01;;;;;;;;;;;;;;;6.78;68.08;99980.44;5424542;32;34406;-70
2023/12/12 04:55:07;;;;;;;;;;;;;;;7.07;67.31;99965.63;5413080;32;35900;-71
2023/12/12 04:58:09;;;;;;;;;;;;;;;7.08;67.88;99962.09;5423224;32;34628;-68
2023/12/12 05:01:14;;;;;;;;;;;;;;;7.39;65.99;99951.53;5440211;32;35006;-68
2023/12/12 05:04:16;;;;;;;;;;;;;;;7.41;65.91;99961.97;5437419;32;34123;-71
2023/12/12 05:07:18;;;;;;;;;;;;;;;7.24;66.51;99949.41;5437053;32;34878;-70
2023/12/12 05:10:21;;;;;;;;;;;;;;;7.33;66.34;99952.56;5444445;32;34377;-68
2023/12/12 05:13:23;;;;;;;;;;;;;;;7.09;67.40;99957.75;5485621;32;34355;-69
2023/12/12 05:16:25;;;;;;;;;;;;;;;7.54;65.79;99971.09;5487628;32;35482;-69
2023/12/12 05:19:33;;;;;;;;;;;;;;;7.37;66.11;99982.09;5483725;32;34427;-71
2023/12/12 05:22:35;;;;;;;;;;;;;;;6.93;67.42;99986.09;5483682;32;34743;-69
2023/12/12 05:25:39;;;;;;;;;;;;;;;7.07;67.23;99989.16;5489148;32;35740;-70
2023/12/12 05:28:42;;;;;;;;;;;;;;;6.93;67.74;99988.72;5487416;32;35460;-71
2023/12/12 05:31:44;;;;;;;;;;;;;;;7.22;66.83;99986.06;5488390;32;34676;-69
2023/12/12 05:34:46;;;;;;;;;;;;;;;7.18;66.82;99988.81;5484690;32;35323;-71
2023/12/12 05:37:48;;;;;;;;;;;;;;;7.00;67.18;99970.19;5487817;32;34226;-68
2023/12/12 05:40:51;;;;;;;;;;;;;;;7.26;66.62;99997.25;5482915;32;35059;-72
2023/12/12 05:43:53;;;;;;;;;;;;;;;6.23;69.32;99996.84;5484786;32;34905;-71
2023/12/12 05:46:55;;;;;;;;;;;;;;;6.74;67.99;100004.09;5486703;32;34926;-71
2023/12/12 05:49:57;;;;;;;;;;;;;;;7.03;66.99;100006.69;5480569;32;34337;-69
2023/12/12 05:52:59;;;;;;;;;;;;;;;6.91;67.54;100007.06;5491565;32;34980;-69
2023/12/12 05:56:01;;;;;;;;;;;;;;;6.91;67.64;100009.69;5481211;32;34720;-71
2023/12/12 05:59:04;;;;;;;;;;;;;;;7.05;67.70;100012.72;5489393;32;34841;-70
2023/12/12 06:02:07;;;;;;;;;;;;;;;7.21;67.29;100007.00;5483528;32;35096;-69
2023/12/12 06:05:10;;;;;;;;;;;;;;;7.52;66.72;100014.72;5481849;32;35139;-68
2023/12/12 06:08:12;;;;;;;;;;;;;;;7.38;67.32;100024.78;5486873;32;34836;-75
2023/12/12 06:11:16;;;;;;;;;;;;;;;7.50;67.30;100033.09;5481183;32;34192;-71
2023/12/12 06:14:18;;;;;;;;;;;;;;;7.68;66.35;100033.41;5487678;32;35009;-70
2023/12/12 06:17:20;;;;;;;;;;;;;;;7.71;66.25;100035.91;5479715;32;34836;-71
2023/12/12 06:20:23;;;;;;;;;;;;;;;7.74;66.05;100043.69;5484929;32;35128;-69
2023/12/12 06:23:25;;;;;;;;;;;;;;;7.72;66.03;100043.72;5486806;32;34302;-68
2023/12/12 06:26:27;;;;;;;;;;;;;;;7.92;65.62;100050.91;5484982;32;34098;-72
2023/12/12 06:29:29;;;;;;;;;;;;;;;7.92;65.70;100042.19;5490824;32;35491;-74
2023/12/12 06:32:31;;;;;;;;;;;;;;;7.44;66.56;100048.97;5487566;32;35514;-65
2023/12/12 06:35:33;;;;;;;;;;;;;;;7.96;65.53;100051.66;5483156;32;34671;-75
2023/12/12 06:38:36;;;;;;;;;;;;;;;7.74;65.73;100056.75;5484860;32;35015;-75
2023/12/12 06:41:37;;;;;;;;;;;;;;;7.66;65.84;100051.75;5487167;32;34344;-74
2023/12/12 06:44:40;;;;;;;;;;;;;;;7.56;66.17;100064.28;5487234;32;35337;-71
2023/12/12 06:47:42;;;;;;;;;;;;;;;7.65;66.27;100070.97;5481599;32;34699;-78
2023/12/12 06:50:44;;;;;;;;;;;;;;;7.79;65.77;100070.53;5488455;32;35047;-68
2023/12/12 06:53:46;;;;;;;;;;;;;;;7.79;65.85;100070.53;5482634;32;34110;-68
2023/12/12 06:56:48;;;;;;;;;;;;;;;7.42;67.44;100070.87;5482994;32;35040;-64
2023/12/12 06:59:52;;;;;;;;;;;;;;;7.97;65.33;100075.16;5482579;32;35389;-74
2023/12/12 07:02:59;;;;;;;;;;;;;;;7.78;66.22;100076.66;5484075;32;34742;-65
2023/12/12 07:06:06;;;;;;;;;;;;;;;7.88;66.44;100076.31;5485998;32;35061;-74
2023/12/12 07:09:12;;;;;;;;;;;;;;;7.83;66.15;100080.00;5472898;32;35634;-75
2023/12/12 07:12:14;;;;;;;;;;;;;;;7.76;67.00;100074.09;5479754;32;35433;-66
2023/12/12 07:15:40;;;;;;;;;;;;;;;7.94;65.83;100059.56;5478929;32;35093;-72
2023/12/12 07:18:48;;;;;;;;;;;;;;;7.91;66.79;100071.88;5482970;32;34810;-70
2023/12/12 07:21:51;;;;;;;;;;;;;;;8.64;65.01;100079.88;5477890;32;35215;-70
2023/12/12 07:24:59;;;;;;;;;;;;;;;8.16;66.23;100085.84;5481162;32;35592;-69
2023/12/12 07:28:05;;;;;;;;;;;;;;;7.94;67.08;100085.72;5485106;32;35179;-71
2023/12/12 07:31:16;;;;;;;;;;;;;;;8.66;65.19;100088.50;5482699;32;37003;-68
2023/12/12 07:34:20;;;;;;;;;;;;;;;8.28;65.94;100081.97;5486276;32;36480;-67
2023/12/12 07:37:25;;;;;;;;;;;;;;;8.70;64.96;100097.13;5481449;32;34457;-72
2023/12/12 07:40:31;;;;;;;;;;;;;;;8.75;64.84;100098.66;5481450;32;35242;-75
2023/12/12 07:43:36;;;;;;;;;;;;;;;8.90;64.44;100100.72;5491378;32;35272;-73
2023/12/12 07:46:41;;;;;;;;;;;;;;;8.73;64.61;100086.53;5483998;32;35377;-66
2023/12/12 07:49:45;;;;;;;;;;;;;;;8.79;64.64;100097.66;5474246;32;34248;-68
2023/12/12 07:52:52;;;;;;;;;;;;;;;8.81;64.31;100098.44;5481513;32;34902;-75
2023/12/12 07:55:57;;;;;;;;;;;;;;;8.85;64.45;100105.28;5479678;32;34943;-73
2023/12/12 07:59:03;;;;;;;;;;;;;;;9.02;63.96;100116.94;5486474;32;35712;-70
2023/12/12 08:02:10;;;;;;;;;;;;;;;9.29;63.16;100121.13;5478553;32;34420;-69
2023/12/12 08:05:17;;;;;;;;;;;;;;;8.92;63.79;100122.50;5458668;32;36693;-73
2023/12/12 08:08:22;;;;;;;;;;;;;;;9.05;63.65;100122.03;5463797;32;35135;-74
2023/12/12 08:11:27;;;;;;;;;;;;;;;9.15;62.46;100120.81;5468829;32;33117;-67
2023/12/12 08:14:29;;;;;;;;;;;;;;;8.86;63.83;100122.72;5454947;32;34081;-73
2023/12/12 08:17:31;;;;;;;;;;;;;;;8.93;62.95;100118.94;5456764;32;35950;-69
2023/12/12 08:20:34;;;;;;;;;;;;;;;9.24;62.67;100120.44;5462901;32;35433;-71
2023/12/12 08:23:37;;;;;;;;;;;;;;;9.47;61.97;100117.81;5463876;32;36438;-69
2023/12/12 08:26:40;;;;;;;;;;;;;;;9.75;61.04;100117.56;5465149;32;34299;-65
2023/12/12 08:29:42;;;;;;;;;;;;;;;9.57;61.14;100106.94;5463367;32;34600;-72
2023/12/12 08:32:44;;;;;;;;;;;;;;;9.77;61.06;100086.84;5465372;32;34301;-73
2023/12/12 08:35:46;;;;;;;;;;;;;;;9.71;61.42;100084.47;5459631;32;34661;-71
2023/12/12 08:38:50;;;;;;;;;;;;;;;10.32;59.67;100088.16;5464013;32;34686;-70
2023/12/12 08:41:53;;;;;;;;;;;;;;;10.23;59.42;100092.00;5452025;32;34068;-70
2023/12/12 08:44:55;;;;;;;;;;;;;;;10.51;59.26;100094.31;5458490;32;36036;-71
2023/12/12 08:47:57;;;;;;;;;;;;;;;10.64;58.57;100099.91;5454320;32;34340;-70
2023/12/12 08:51:03;;;;;;;;;;;;;;;10.04;60.13;100103.25;5460867;32;34173;-70
2023/12/12 08:54:05;;;;;;;;;;;;;;;10.84;58.93;100105.97;5453272;32;36020;-69
2023/12/12 08:57:09;;;;;;;;;;;;;;;11.26;57.10;100112.81;5459649;32;34393;-76
2023/12/12 09:00:12;;;;;;;;;;;;;;;11.05;56.58;100111.19;5458442;32;35543;-74
2023/12/12 09:03:15;;;;;;;;;;;;;;;10.90;56.55;100119.78;5463289;32;34861;-72
2023/12/12 09:06:20;;;;;;;;;;;;;;;10.63;55.96;100122.69;5461048;32;36131;-70
2023/12/12 09:09:28;;;;;;;;;;;;;;;9.99;58.40;100128.84;5463689;32;35711;-72
2023/12/12 09:12:33;;;;;;;;;;;;;;;9.85;59.31;100128.53;5461984;32;34786;-70
2023/12/12 09:15:35;;;;;;;;;;;;;;;9.38;60.99;100122.53;5461491;32;35507;-71
2023/12/12 09:18:37;;;;;;;;;;;;;;;9.63;60.54;100123.31;5459171;32;34770;-73
2023/12/12 09:21:40;;;;;;;;;;;;;;;8.89;64.18;100132.25;5456313;32;36248;-72
2023/12/12 09:24:42;;;;;;;;;;;;;;;8.70;64.95;100128.56;5460572;32;34507;-73
2023/12/12 09:27:44;;;;;;;;;;;;;;;9.83;60.68;100116.41;5456362;32;34888;-75
2023/12/12 09:30:49;;;;;;;;;;;;;;;9.38;61.55;100109.44;5460791;32;35441;-73
2023/12/12 09:33:51;;;;;;;;;;;;;;;10.12;59.91;100100.31;5447610;32;34901;-75
2023/12/12 09:36:53;;;;;;;;;;;;;;;9.78;60.14;100109.56;5459474;32;34752;-70
2023/12/12 09:39:55;;;;;;;;;;;;;;;10.67;58.78;100097.13;5462882;32;35626;-71
2023/12/12 09:43:00;;;;;;;;;;;;;;;11.21;56.94;100099.06;5455210;32;34754;-70
2023/12/12 09:46:02;;;;;;;;;;;;;;;11.26;56.38;100099.66;5460641;32;34374;-71
2023/12/12 09:49:08;;;;;;;;;;;;;;;11.39;56.03;100095.53;5459336;32;35631;-73
2023/12/12 09:52:11;;;;;;;;;;;;;;;11.17;56.59;100101.91;5460952;32;33060;-71
2023/12/12 09:55:13;;;;;;;;;;;;;;;11.53;55.66;100092.28;5456320;32;35592;-72
2023/12/12 09:58:15;;;;;;;;;;;;;;;10.39;59.22;100093.06;5453997;32;33889;-72
2023/12/12 10:01:17;;;;;;;;;;;;;;;11.28;56.18;100083.84;5462489;32;34360;-71
2023/12/12 10:04:20;;;;;;;;;;;;;;;11.39;55.57;100095.53;5460766;32;34408;-68
2023/12/12 10:07:36;;;;;;;;;;;;;;;11.16;57.04;100092.28;5460180;32;34688;-71
2023/12/12 10:10:41;;;;;;;;;;;;;;;11.64;55.83;100086.47;5464370;32;34162;-69
2023/12/12 10:13:56;;;;;;;;;;;;;;;11.86;55.29;100089.84;5449640;32;34805;-73
2023/12/12 10:17:02;;;;;;;;;;;;;;;11.12;57.80;100081.06;5463784;32;34809;-75
2023/12/12 10:20:07;;;;;;;;;;;;;;;11.79;55.59;100085.75;5444379;32;853369;-80
2023/12/12 10:23:09;;;;;;;;;;;;;;;12.30;53.56;100083.25;5484111;32;34658;-81
2023/12/12 10:26:12;;;;;;;;;;;;;;;11.79;55.09;100093.66;5482614;32;35493;-76
2023/12/12 10:29:15;;;;;;;;;;;;;;;11.35;55.60;100075.59;5484996;32;34335;-72
2023/12/12 10:32:17;;;;;;;;;;;;;;;11.93;54.44;100075.44;5482913;32;34152;-70
2023/12/12 10:35:20;;;;;;;;;;;;;;;11.69;55.08;100065.22;5487294;32;34671;-70
2023/12/12 10:38:25;;;;;;;;;;;;;;;11.35;56.46;100061.56;5483308;32;34985;-71
2023/12/12 10:41:36;;;;;;;;;;;;;;;11.39;56.51;100077.13;5484241;32;34631;-75
2023/12/12 10:44:46;;;;;;;;;;;;;;;11.35;57.28;100064.22;5484918;32;34353;-71
2023/12/12 10:47:55;;;;;;;;;;;;;;;11.93;54.59;100069.31;5483844;32;33622;-74
2023/12/12 10:51:02;;;;;;;;;;;;;;;11.67;55.45;100067.94;5482796;32;36132;-76
2023/12/12 10:54:07;;;;;;;;;;;;;;;11.71;55.69;100076.50;5484303;32;36492;-71
2023/12/12 10:57:13;;;;;;;;;;;;;;;11.37;56.68;100078.97;5485323;32;35735;-72
2023/12/12 11:00:20;;;;;;;;;;;;;;;11.49;56.95;100082.81;5486755;32;34118;-76
2023/12/12 11:03:23;;;;;;;;;;;;;;;11.48;56.29;100077.63;5488525;32;35092;-77
2023/12/12 11:06:25;;;;;;;;;;;;;;;11.95;55.04;100080.63;5486174;32;34590;-78
2023/12/12 11:09:27;;;;;;;;;;;;;;;12.07;54.76;100084.44;5482405;32;34867;-76
2023/12/12 11:12:32;;;;;;;;;;;;;;;11.24;56.08;100082.25;5482845;32;34860;-74
2023/12/12 11:15:35;;;;;;;;;;;;;;;12.39;54.41;100065.19;5486392;32;35060;-75
2023/12/12 11:18:37;;;;;;;;;;;;;;;13.01;53.01;100087.41;5483605;32;33836;-71
2023/12/12 11:21:43;;;;;;;;;;;;;;;13.40;51.12;100080.91;5486632;32;34913;-71
2023/12/12 11:25:02;;;;;;;;;;;;;;;13.83;50.29;100078.47;5486579;32;35206;-75
2023/12/12 11:28:04;;;;;;;;;;;;;;;14.96;47.70;100066.44;5481646;32;35379;-72
2023/12/12 11:31:08;;;;;;;;;;;;;;;16.20;44.03;100061.91;5483705;32;33876;-72
2023/12/12 11:34:11;;;;;;;;;;;;;;;17.64;41.52;100057.09;5484340;32;34648;-73
2023/12/12 11:37:16;;;;;;;;;;;;;;;18.54;38.60;100052.94;5484817;32;34383;-73
2023/12/12 11:40:18;;;;;;;;;;;;;;;18.14;38.68;100050.69;5482611;32;34567;-74
2023/12/12 11:43:21;;;;;;;;;;;;;;;16.88;40.31;100052.00;5484883;32;37130;-75
2023/12/12 11:46:23;;;;;;;;;;;;;;;17.85;39.43;100052.03;5479895;32;34254;-73
2023/12/12 11:49:25;;;;;;;;;;;;;;;17.60;38.90;100043.19;5483564;32;33996;-72
2023/12/12 11:52:54;;;;;;;;;;;;;;;17.46;39.65;100050.50;5484080;32;34296;-76
2023/12/12 11:55:59;;;;;;;;;;;;;;;17.70;38.92;100040.69;5481040;32;33927;-72
2023/12/12 11:59:02;;;;;;;;;;;;;;;18.54;38.24;100039.63;5487771;32;34356;-71
2023/12/12 12:02:04;;;;;;;;;;;;;;;19.91;35.20;100033.09;5480042;32;34404;-70
2023/12/12 12:05:09;;;;;;;;;;;;;;;21.18;32.79;100034.63;5486244;32;35869;-74
2023/12/12 12:08:12;;;;;;;;;;;;;;;22.13;30.61;100018.88;5482257;32;35024;-76
2023/12/12 12:11:19;;;;;;;;;;;;;;;21.56;32.00;100029.41;5481860;32;36085;-77
2023/12/12 12:14:22;;;;;;;;;;;;;;;20.55;32.54;100030.31;5488718;32;34911;-68
2023/12/12 12:17:31;;;;;;;;;;;;;;;20.18;33.21;100016.56;5479442;32;34670;-79
2023/12/12 12:20:46;;;;;;;;;;;;;;;18.93;35.22;100022.41;5485448;32;35677;-77
2023/12/12 12:23:48;;;;;;;;;;;;;;;18.66;36.12;100024.53;5476350;32;34390;-76
2023/12/12 12:26:50;;;;;;;;;;;;;;;17.41;39.94;100029.56;5482000;32;35555;-73
2023/12/12 12:30:03;;;;;;;;;;;;;;;16.30;41.89;100022.38;5485117;32;35481;-75
2023/12/12 12:33:06;;;;;;;;;;;;;;;17.08;40.55;100016.94;5476882;32;34526;-75
2023/12/12 12:36:08;;;;;;;;;;;;;;;17.51;39.88;100019.09;5483714;32;35789;-73
2023/12/12 12:39:14;;;;;;;;;;;;;;;16.58;41.63;100023.13;5476372;32;34199;-69
2023/12/12 12:42:16;;;;;;;;;;;;;;;16.01;43.98;100020.84;5484822;32;34795;-78
2023/12/12 12:45:23;;;;;;;;;;;;;;;17.27;41.97;100014.63;5487563;32;34846;-74
2023/12/12 12:48:26;;;;;;;;;;;;;;;19.43;37.81;100009.47;5482443;32;34199;-73
2023/12/12 12:51:32;;;;;;;;;;;;;;;21.90;33.51;99999.59;5485249;32;34623;-74
2023/12/12 12:54:34;;;;;;;;;;;;;;;22.35;31.07;99999.84;5476549;32;35591;-71
2023/12/12 12:57:38;;;;;;;;;;;;;;;20.69;33.40;99998.91;5486665;32;34870;-71
2023/12/12 13:00:42;;;;;;;;;;;;;;;19.20;35.77;100002.53;5478388;32;35811;-73
2023/12/12 13:03:48;;;;;;;;;;;;;;;16.31;41.87;100000.22;5482797;32;34312;-76
2023/12/12 13:06:52;;;;;;;;;;;;;;;17.04;40.20;99989.72;5484592;32;34227;-71
2023/12/12 13:09:54;;;;;;;;;;;;;;;16.32;41.51;99996.59;5481849;32;34327;-74
2023/12/12 13:12:59;;;;;;;;;;;;;;;15.42;44.56;100010.56;5476063;32;35473;-69
2023/12/12 13:16:05;;;;;;;;;;;;;;;15.34;44.82;99999.66;5486698;32;36452;-70
2023/12/12 13:19:09;;;;;;;;;;;;;;;14.88;45.41;99989.34;5487993;32;35564;-70
2023/12/12 13:22:12;;;;;;;;;;;;;;;14.23;47.28;99986.28;5482325;32;33415;-70
2023/12/12 13:25:14;;;;;;;;;;;;;;;13.34;50.03;99996.78;5486323;32;35109;-73
2023/12/12 13:28:16;;;;;;;;;;;;;;;13.59;49.44;99998.00;5487848;32;33229;-71
2023/12/12 13:31:20;;;;;;;;;;;;;;;13.38;49.81;99986.91;5482294;32;34143;-73
2023/12/12 13:34:23;;;;;;;;;;;;;;;13.38;50.45;100000.09;5486530;32;34848;-70
2023/12/12 13:37:27;;;;;;;;;;;;;;;13.13;51.11;99997.94;5484257;32;36217;-75
2023/12/12 13:40:32;;;;;;;;;;;;;;;12.77;52.12;100011.38;5489587;32;35339;-72
2023/12/12 13:43:35;;;;;;;;;;;;;;;12.77;51.72;100003.47;5483108;32;34571;-73
2023/12/12 13:46:37;;;;;;;;;;;;;;;13.04;51.39;100009.03;5484940;32;35356;-69
2023/12/12 13:49:40;;;;;;;;;;;;;;;13.42;50.10;100020.97;5482506;32;34148;-73
2023/12/12 13:52:42;;;;;;;;;;;;;;;13.37;50.57;100020.37;5474644;32;34720;-72
2023/12/12 13:55:45;;;;;;;;;;;;;;;13.19;51.30;100029.28;5486075;32;34273;-72
2023/12/12 13:58:47;;;;;;;;;;;;;;;13.51;50.58;100025.69;5478532;32;34364;-72
2023/12/12 14:02:02;;;;;;;;;;;;;;;12.68;52.16;100031.16;5477220;32;34273;-72
2023/12/12 14:05:05;;;;;;;;;;;;;;;12.60;52.22;100039.50;5487367;32;34801;-73
2023/12/12 14:08:09;;;;;;;;;;;;;;;12.29;53.26;100045.50;5482049;32;34661;-71
2023/12/12 14:11:12;;;;;;;;;;;;;;;12.77;51.74;100032.47;5484262;32;34078;-72
2023/12/12 14:14:14;;;;;;;;;;;;;;;12.86;51.74;100040.72;5486547;32;34507;-70
2023/12/12 14:17:18;;;;;;;;;;;;;;;12.07;53.79;100050.19;5474342;32;34331;-84
2023/12/12 14:20:20;;;;;;;;;;;;;;;12.43;53.13;100037.75;5485712;32;34276;-74
2023/12/12 14:23:25;;;;;;;;;;;;;;;12.71;52.24;100031.88;5483592;32;37339;-79
2023/12/12 14:26:30;;;;;;;;;;;;;;;12.46;52.85;100037.59;5470804;32;35421;-74
2023/12/12 14:29:32;;;;;;;;;;;;;;;12.58;52.29;100038.72;5486479;32;33967;-74
2023/12/12 14:32:36;;;;;;;;;;;;;;;12.15;53.38;100040.94;5467593;32;35974;-77
2023/12/12 14:35:38;;;;;;;;;;;;;;;12.34;53.09;100047.91;5448470;32;33766;-73
2023/12/12 14:38:43;;;;;;;;;;;;;;;12.47;52.70;100030.53;5459419;32;35439;-77
2023/12/12 14:41:50;;;;;;;;;;;;;;;12.22;53.43;100036.22;5457335;32;35467;-73
2023/12/12 14:44:52;;;;;;;;;;;;;;;12.46;52.90;100029.69;5459293;32;34303;-75
2023/12/12 14:47:54;;;;;;;;;;;;;;;11.80;54.67;100029.53;5461412;32;34293;-73
2023/12/12 14:50:56;;;;;;;;;;;;;;;11.64;55.24;100021.53;5455449;32;34832;-77
2023/12/12 14:53:59;;;;;;;;;;;;;;;11.36;56.50;100037.81;5467405;32;34286;-73
2023/12/12 14:57:02;;;;;;;;;;;;;;;11.15;57.38;100028.31;5457443;32;35049;-74
2023/12/12 15:00:22;;;;;;;;;;;;;;;11.40;56.78;100022.75;5457612;32;36310;-73
2023/12/12 15:03:28;;;;;;;;;;;;;;;11.02;57.30;100020.16;5455533;32;35220;-75
2023/12/12 15:06:30;;;;;;;;;;;;;;;11.23;57.25;100015.66;5462188;32;35344;-74
2023/12/12 15:09:32;;;;;;;;;;;;;;;10.48;59.14;100010.37;5479003;32;34724;-74
2023/12/12 15:12:34;;;;;;;;;;;;;;;11.10;57.32;100020.63;5480302;32;33134;-73
2023/12/12 15:15:37;;;;;;;;;;;;;;;11.43;55.95;100001.53;5478794;32;34219;-73
2023/12/12 15:18:39;;;;;;;;;;;;;;;11.33;55.79;100001.16;5473245;32;34557;-73
2023/12/12 15:21:41;;;;;;;;;;;;;;;11.31;56.04;100000.34;5469430;32;34062;-75
2023/12/12 15:24:43;;;;;;;;;;;;;;;11.00;56.62;99998.31;5484487;32;34850;-75
2023/12/12 15:27:45;;;;;;;;;;;;;;;11.20;55.82;99994.72;5477807;32;34395;-72
2023/12/12 15:31:07;;;;;;;;;;;;;;;10.62;57.29;99991.34;5480676;32;35647;-75
2023/12/12 15:34:10;;;;;;;;;;;;;;;11.13;56.10;99982.81;5462635;32;34569;-71
2023/12/12 15:37:13;;;;;;;;;;;;;;;11.08;55.92;99988.31;5466590;32;35113;-74
2023/12/12 15:40:15;;;;;;;;;;;;;;;10.66;57.02;99990.28;5478977;32;35547;-74
2023/12/12 15:43:17;;;;;;;;;;;;;;;10.80;56.81;99991.34;5472781;32;34765;-73
2023/12/12 15:46:19;;;;;;;;;;;;;;;11.18;55.66;99982.59;5486794;32;35103;-74
2023/12/12 15:49:21;;;;;;;;;;;;;;;11.11;55.47;99982.88;5468282;32;35278;-73
2023/12/12 15:52:23;;;;;;;;;;;;;;;10.36;57.91;99984.63;5471012;32;34720;-72
2023/12/12 15:55:25;;;;;;;;;;;;;;;10.75;56.93;99995.97;5486712;32;34943;-71
2023/12/12 15:58:28;;;;;;;;;;;;;;;11.11;55.72;99987.28;5487034;32;36051;-74
2023/12/12 16:01:33;;;;;;;;;;;;;;;10.10;58.67;99983.13;5488774;32;34936;-74
2023/12/12 16:04:36;;;;;;;;;;;;;;;10.63;57.51;99983.41;5485978;32;35888;-73
2023/12/12 16:07:38;;;;;;;;;;;;;;;10.76;57.04;99989.81;5487458;32;34836;-74
2023/12/12 16:10:40;;;;;;;;;;;;;;;10.78;56.83;99984.47;5480387;32;34911;-74